Zaragoza, Spain

6:20 PM CEST on August 22, 2014 (GMT +0200)
Valdefierro | Change Station
CLOSE
Current Station
Personal Weather Station
Location: Zaragoza, Zaragoza
Elevation: 810 ft
Nearby Weather Stations
Active Advisory: Thunderstorms

Elev 810 ft 41.64 °N, 0.94 °W | Updated 29 seconds ago

Partly Cloudy
Partly Cloudy
72.3 °F
Feels Like 77 °F
N
4.7
Wind Variable Wind from NNE
Gusts 12.1 mph

Today
High -- | Low -- °F
--% Chance of Precip.
Yesterday
High -- | Low -- °F
Precip. -- in
7:19 AM 8:53 PM
Waning Crescent, 8% visible
Pressure 29.98 in
Visibility 6.2 miles
Clouds Few 3200 ft
Heat Index 77 °F
Dew Point 55 °F
Humidity 55%
Rainfall 0.00 in
Snow Depth Not available.
UV 4 out of 12
Pollen Not available.
Air Quality Not available.
Flu Activity Not available.
METAR LEZG 221600Z 30021KT 9999 FEW032TCU 20/14 Q1015

More Conditions Fewer Conditions

Pressure 29.98 in
Visibility 6.2 miles
Clouds Few 3200 ft
Heat Index 77 °F
Dew Point 55 °F
Humidity 55%
Rainfall 0.00 in
Snow Depth Not available.
UV 4 out of 12
Pollen Not available.
Air Quality Not available.
Flu Activity Not available.
METAR LEZG 221600Z 30021KT 9999 FEW032TCU 20/14 Q1015

More Conditions Fewer Conditions

10-Day Weather Forecast

Almanac

Astronomy

Aug. 22, 2014 Rise Set
Actual Time 7:19 AM CEST 8:53 PM CEST
Civil Twilight 6:50 AM CEST 9:22 PM CEST
Nautical Twilight 6:14 AM CEST 9:58 PM CEST
Astronomical Twilight 5:37 AM CEST 10:35 PM CEST
Moon 4:28 AM CEST 6:53 PM CEST
Length of Visible Light 14h 32m
Length of Day
13h 34m
Tomorrow will be 2m 34s shorter.
Waning Crescent, 8% of the Moon is Illuminated
Today
Waning Crescent
Aug 25
New
Sep 2
First Quarter
Sep 8
Full
Sep 15
Last Quarter

Today's Extremes

Country Highs Country Lows

Community

WunderPhotos

Upload Photos

1,746,194 photos uploaded!

Nearby

Snow Depth

Not available.

Earthquake Activity

City Distance Mag. Time & Date
No recent earthquake activity has been reported nearby.
Minimum magnitude displayed is 2.5.

Coastal Water Temperatures

Place Temperature
No Stations Reporting

Nearby Weather Stations